createdAt,value
2024-01-25T00:00:34.455Z,1022.79
2024-01-25T00:01:35.095Z,1022.89
2024-01-25T00:02:36.018Z,1022.89
2024-01-25T00:03:37.174Z,1022.89
2024-01-25T00:04:38.176Z,1022.89
2024-01-25T00:05:39.146Z,1022.79
2024-01-25T00:06:40.185Z,1022.89
2024-01-25T00:07:41.041Z,1022.79
2024-01-25T00:08:42.047Z,1022.79
2024-01-25T00:09:43.044Z,1022.79
2024-01-25T00:10:44.089Z,1022.69
2024-01-25T00:11:45.059Z,1022.89
2024-01-25T00:12:46.128Z,1022.89
2024-01-25T00:13:47.055Z,1022.89
2024-01-25T00:14:48.052Z,1022.69
2024-01-25T00:15:49.268Z,1022.89
2024-01-25T00:16:50.021Z,1022.69
2024-01-25T00:17:51.068Z,1022.69
2024-01-25T00:18:52.112Z,1022.79
2024-01-25T00:19:53.133Z,1022.99
2024-01-25T00:20:54.030Z,1022.89
2024-01-25T00:21:55.051Z,1022.79
2024-01-25T00:22:56.034Z,1022.79
2024-01-25T00:23:57.038Z,1022.89
2024-01-25T00:24:58.053Z,1022.79
2024-01-25T00:25:59.089Z,1022.79
2024-01-25T00:27:00.093Z,1022.79
2024-01-25T00:28:01.168Z,1022.79
2024-01-25T00:29:02.055Z,1022.59
2024-01-25T00:30:03.871Z,1022.89
2024-01-25T00:31:04.080Z,1022.69
2024-01-25T00:32:05.029Z,1022.69
2024-01-25T00:33:06.141Z,1022.69
2024-01-25T00:34:07.215Z,1022.59
2024-01-25T00:35:08.411Z,1022.69
2024-01-25T00:36:09.049Z,1022.48
2024-01-25T00:37:10.130Z,1022.69
2024-01-25T00:38:11.057Z,1022.59
2024-01-25T00:39:12.055Z,1022.69
2024-01-25T00:40:13.108Z,1022.21
2024-01-25T00:41:14.047Z,1022.48
2024-01-25T00:42:15.066Z,1022.59
2024-01-25T00:43:16.243Z,1022.48
2024-01-25T00:44:17.055Z,1022.69
2024-01-25T00:45:18.207Z,1022.69
2024-01-25T00:46:19.698Z,1022.48
2024-01-25T00:47:20.092Z,1022.89
2024-01-25T00:48:21.228Z,1022.59
2024-01-25T00:49:22.171Z,1022.59
2024-01-25T00:50:23.336Z,1022.69
2024-01-25T00:51:24.070Z,1022.69
2024-01-25T00:52:25.142Z,1022.69
2024-01-25T00:53:26.060Z,1022.89
2024-01-25T00:54:27.060Z,1022.79
2024-01-25T00:55:28.191Z,1022.69
2024-01-25T00:56:29.094Z,1022.89
2024-01-25T00:57:30.154Z,1022.59
2024-01-25T00:58:31.142Z,1022.99
2024-01-25T00:59:32.353Z,1022.89
2024-01-25T01:00:33.372Z,1022.79
2024-01-25T01:01:34.255Z,1022.89
2024-01-25T01:02:35.123Z,1022.99
2024-01-25T01:03:36.165Z,1023.20
2024-01-25T01:04:47.040Z,1022.69
2024-01-25T01:05:38.200Z,1022.79
2024-01-25T01:06:39.162Z,1023.09
2024-01-25T01:07:40.170Z,1023.09
2024-01-25T01:08:41.070Z,1022.99
2024-01-25T01:09:42.117Z,1023.09
2024-01-25T01:10:43.104Z,1023.20
2024-01-25T01:11:44.094Z,1022.99
2024-01-25T01:12:45.166Z,1023.09
2024-01-25T01:13:46.118Z,1022.99
2024-01-25T01:14:47.098Z,1023.09
2024-01-25T01:15:48.354Z,1022.89
2024-01-25T01:16:49.080Z,1022.99
2024-01-25T01:17:50.178Z,1022.99
2024-01-25T01:18:51.226Z,1023.20
2024-01-25T01:19:52.293Z,1022.99
2024-01-25T01:20:53.113Z,1023.20
2024-01-25T01:21:54.155Z,1022.99
2024-01-25T01:22:55.098Z,1023.09
2024-01-25T01:23:56.112Z,1022.89
2024-01-25T01:24:57.216Z,1022.99
2024-01-25T01:25:58.121Z,1023.09
2024-01-25T01:26:59.112Z,1022.79
2024-01-25T01:28:00.224Z,1022.99
2024-01-25T01:29:01.131Z,1022.99
2024-01-25T01:30:03.407Z,1022.89
2024-01-25T01:31:03.357Z,1022.89
2024-01-25T01:32:04.354Z,1022.89
2024-01-25T01:33:05.445Z,1023.30
2024-01-25T01:34:07.608Z,1023.09
2024-01-25T01:35:08.084Z,1023.20
2024-01-25T01:36:08.226Z,1022.89
2024-01-25T01:37:09.251Z,1023.09
2024-01-25T01:38:10.134Z,1023.20
2024-01-25T01:39:11.136Z,1022.99
2024-01-25T01:40:12.175Z,1023.20
2024-01-25T01:41:13.135Z,1022.89
2024-01-25T01:42:14.142Z,1022.99
2024-01-25T01:43:15.250Z,1022.89
2024-01-25T01:44:16.145Z,1023.09
2024-01-25T01:45:17.321Z,1022.89
2024-01-25T01:46:18.203Z,1023.09
2024-01-25T01:47:19.148Z,1023.09
2024-01-25T01:48:20.318Z,1022.89
2024-01-25T01:49:21.422Z,1022.59
2024-01-25T01:50:22.439Z,1022.99
2024-01-25T01:51:23.161Z,1023.20
2024-01-25T01:52:24.310Z,1022.89
2024-01-25T01:53:25.130Z,1023.09
2024-01-25T01:54:26.136Z,1023.09
2024-01-25T01:55:27.204Z,1022.99
2024-01-25T01:56:28.160Z,1023.09
2024-01-25T01:57:29.182Z,1022.99
2024-01-25T01:58:30.156Z,1022.89
2024-01-25T01:59:31.178Z,1022.89
2024-01-25T02:00:32.401Z,1023.09
2024-01-25T02:01:34.392Z,1022.89
2024-01-25T02:02:34.137Z,1022.89
2024-01-25T02:03:35.335Z,1022.99
2024-01-25T02:04:36.459Z,1022.89
2024-01-25T02:05:37.167Z,1022.79
2024-01-25T02:06:38.521Z,1022.89
2024-01-25T02:07:39.433Z,1022.89
2024-01-25T02:08:40.171Z,1022.99
2024-01-25T02:09:41.201Z,1022.79
2024-01-25T02:10:42.179Z,1022.99
2024-01-25T02:11:43.182Z,1022.89
2024-01-25T02:12:44.224Z,1022.89
2024-01-25T02:13:45.190Z,1022.89
2024-01-25T02:14:46.306Z,1022.99
2024-01-25T02:15:47.417Z,1023.09
2024-01-25T02:16:48.197Z,1022.89
2024-01-25T02:17:49.231Z,1022.89
2024-01-25T02:18:50.267Z,1022.79
2024-01-25T02:19:51.219Z,1022.69
2024-01-25T02:20:52.214Z,1022.89
2024-01-25T02:21:53.269Z,1022.89
2024-01-25T02:22:54.162Z,1023.20
2024-01-25T02:23:55.203Z,1022.69
2024-01-25T02:24:56.157Z,1022.89
2024-01-25T02:25:57.166Z,1022.99
2024-01-25T02:26:58.160Z,1022.89
2024-01-25T02:27:59.225Z,1023.09
2024-01-25T02:29:00.260Z,1022.79
2024-01-25T02:30:01.755Z,1022.79
2024-01-25T02:31:02.254Z,1022.89
2024-01-25T02:32:03.180Z,1022.89
2024-01-25T02:33:04.290Z,1022.69
2024-01-25T02:34:05.382Z,1022.89
2024-01-25T02:35:06.228Z,1022.69
2024-01-25T02:36:07.175Z,1022.48
2024-01-25T02:37:08.365Z,1022.79
2024-01-25T02:38:09.166Z,1022.79
2024-01-25T02:39:10.216Z,1022.79
2024-01-25T02:40:11.532Z,1022.89
2024-01-25T02:41:12.190Z,1022.79
2024-01-25T02:42:13.197Z,1022.69
2024-01-25T02:43:14.244Z,1022.69
2024-01-25T02:44:15.207Z,1022.79
2024-01-25T02:45:16.447Z,1022.69
2024-01-25T02:46:17.190Z,1022.48
2024-01-25T02:47:18.181Z,1022.79
2024-01-25T02:48:19.430Z,1022.59
2024-01-25T02:49:20.391Z,1022.89
2024-01-25T02:50:21.296Z,1022.79
2024-01-25T02:51:22.179Z,1023.09
2024-01-25T02:52:23.224Z,1022.89
2024-01-25T02:53:24.216Z,1022.79
2024-01-25T02:54:25.216Z,1022.79
2024-01-25T02:55:26.215Z,1022.89
2024-01-25T02:56:27.188Z,1022.79
2024-01-25T02:57:28.185Z,1022.89
2024-01-25T02:58:29.257Z,1022.89
2024-01-25T02:59:30.235Z,1022.69
2024-01-25T03:00:31.473Z,1022.79
2024-01-25T03:01:32.298Z,1022.69
2024-01-25T03:02:33.229Z,1022.79
2024-01-25T03:03:34.297Z,1022.69
2024-01-25T03:04:35.298Z,1022.48
2024-01-25T03:05:36.253Z,1022.59
2024-01-25T03:06:37.276Z,1022.69
2024-01-25T03:07:38.225Z,1022.89
2024-01-25T03:08:39.367Z,1022.79
2024-01-25T03:09:40.237Z,1022.69
2024-01-25T03:10:41.209Z,1022.89
2024-01-25T03:11:42.215Z,1022.69
2024-01-25T03:12:43.295Z,1022.89
2024-01-25T03:13:44.216Z,1022.89
2024-01-25T03:14:45.254Z,1022.79
2024-01-25T03:15:46.452Z,1022.48
2024-01-25T03:16:47.206Z,1022.79
2024-01-25T03:17:48.292Z,1022.69
2024-01-25T03:18:49.320Z,1022.59
2024-01-25T03:19:50.369Z,1022.79
2024-01-25T03:20:51.236Z,1022.79
2024-01-25T03:21:52.277Z,1022.89
2024-01-25T03:22:53.238Z,1022.69
2024-01-25T03:23:54.243Z,1022.89
2024-01-25T03:24:55.269Z,1022.69
2024-01-25T03:25:56.234Z,1022.79
2024-01-25T03:26:57.222Z,1022.69
2024-01-25T03:27:58.278Z,1022.99
2024-01-25T03:28:59.275Z,1022.89
2024-01-25T03:30:00.595Z,1023.09
2024-01-25T03:31:01.283Z,1022.99
2024-01-25T03:32:02.247Z,1023.09
2024-01-25T03:33:03.382Z,1023.09
2024-01-25T03:34:04.420Z,1023.09
2024-01-25T03:35:05.349Z,1023.50
2024-01-25T03:36:06.252Z,1022.89
2024-01-25T03:37:07.294Z,1023.20
2024-01-25T03:38:08.328Z,1023.20
2024-01-25T03:39:09.262Z,1023.20
2024-01-25T03:40:10.309Z,1023.20
2024-01-25T03:41:11.248Z,1023.30
2024-01-25T03:42:12.239Z,1023.20
2024-01-25T03:43:19.154Z,1023.09
2024-01-25T03:44:14.301Z,1023.30
2024-01-25T03:45:15.477Z,1023.30
2024-01-25T03:46:16.325Z,1023.20
2024-01-25T03:47:17.272Z,1023.50
2024-01-25T03:48:18.328Z,1023.20
2024-01-25T03:49:19.411Z,1023.50
2024-01-25T03:50:20.344Z,1023.30
2024-01-25T03:51:21.245Z,1023.40
2024-01-25T03:52:22.374Z,1023.30
2024-01-25T03:53:23.255Z,1023.81
2024-01-25T03:54:24.266Z,1023.50
2024-01-25T03:55:25.319Z,1023.70
2024-01-25T03:56:26.254Z,1023.70
2024-01-25T03:57:27.312Z,1023.70
2024-01-25T03:58:28.378Z,1023.60
2024-01-25T03:59:29.296Z,1024.01
2024-01-25T04:00:30.738Z,1023.70
2024-01-25T04:01:32.382Z,1023.70
2024-01-25T04:02:32.277Z,1023.81
2024-01-25T04:03:33.410Z,1023.70
2024-01-25T04:04:34.402Z,1024.01
2024-01-25T04:05:35.356Z,1023.91
2024-01-25T04:06:36.355Z,1023.91
2024-01-25T04:07:37.302Z,1024.11
2024-01-25T04:08:38.287Z,1024.11
2024-01-25T04:09:39.318Z,1023.81
2024-01-25T04:10:40.314Z,1024.11
2024-01-25T04:11:41.313Z,1024.11
2024-01-25T04:12:42.320Z,1024.01
2024-01-25T04:13:43.288Z,1023.91
2024-01-25T04:14:44.304Z,1023.81
2024-01-25T04:15:45.621Z,1023.91
2024-01-25T04:16:46.306Z,1023.70
2024-01-25T04:17:47.291Z,1024.01
2024-01-25T04:18:48.460Z,1023.91
2024-01-25T04:19:49.380Z,1023.91
2024-01-25T04:20:50.340Z,1023.81
2024-01-25T04:21:51.325Z,1023.70
2024-01-25T04:22:52.291Z,1024.01
2024-01-25T04:23:53.299Z,1024.21
2024-01-25T04:24:54.340Z,1024.01
2024-01-25T04:25:55.326Z,1023.91
2024-01-25T04:26:56.288Z,1024.11
2024-01-25T04:27:57.307Z,1024.11
2024-01-25T04:28:58.302Z,1023.91
2024-01-25T04:29:59.351Z,1023.81
2024-01-25T04:31:00.386Z,1023.81
2024-01-25T04:32:01.373Z,1023.91
2024-01-25T04:33:02.369Z,1024.01
2024-01-25T04:34:03.629Z,1023.91
2024-01-25T04:35:04.488Z,1023.91
2024-01-25T04:36:05.335Z,1024.21
2024-01-25T04:37:06.363Z,1023.81
2024-01-25T04:38:07.317Z,1024.11
2024-01-25T04:39:08.414Z,1024.21
2024-01-25T04:40:09.427Z,1024.11
2024-01-25T04:41:10.307Z,1024.01
2024-01-25T04:42:11.302Z,1024.01
2024-01-25T04:43:12.398Z,1024.11
2024-01-25T04:44:13.306Z,1024.11
2024-01-25T04:45:14.502Z,1023.91
2024-01-25T04:46:15.363Z,1023.81
2024-01-25T04:47:16.389Z,1024.21
2024-01-25T04:48:17.346Z,1024.11
2024-01-25T04:49:18.452Z,1024.21
2024-01-25T04:50:19.501Z,1024.11
2024-01-25T04:51:20.376Z,1024.01
2024-01-25T04:52:21.504Z,1023.91
2024-01-25T04:53:22.311Z,1024.01
2024-01-25T04:54:23.289Z,1023.91
2024-01-25T04:55:24.581Z,1023.91
2024-01-25T04:56:25.362Z,1024.01
2024-01-25T04:57:26.342Z,1023.91
2024-01-25T04:58:27.364Z,1023.81
2024-01-25T04:59:31.095Z,1024.21
2024-01-25T05:00:29.592Z,1023.70
2024-01-25T05:01:30.463Z,1023.81
2024-01-25T05:02:31.435Z,1024.11
2024-01-25T05:03:32.454Z,1024.01
2024-01-25T05:04:33.582Z,1023.91
2024-01-25T05:05:34.353Z,1023.91
2024-01-25T05:06:35.361Z,1023.91
2024-01-25T05:07:36.525Z,1023.81
2024-01-25T05:08:37.440Z,1024.01
2024-01-25T05:09:38.384Z,1023.81
2024-01-25T05:10:39.369Z,1024.11
2024-01-25T05:11:40.381Z,1024.11
2024-01-25T05:12:41.431Z,1023.81
2024-01-25T05:13:42.344Z,1024.01
2024-01-25T05:14:43.370Z,1023.81
2024-01-25T05:15:44.624Z,1024.11
2024-01-25T05:16:45.395Z,1023.81
2024-01-25T05:17:46.458Z,1024.01
2024-01-25T05:18:47.583Z,1023.91
2024-01-25T05:19:48.598Z,1024.01
2024-01-25T05:20:49.371Z,1023.91
2024-01-25T05:21:50.397Z,1024.11
2024-01-25T05:22:51.367Z,1023.81
2024-01-25T05:23:52.362Z,1023.91
2024-01-25T05:24:53.379Z,1023.81
2024-01-25T05:25:54.389Z,1023.91
2024-01-25T05:26:55.372Z,1024.01
2024-01-25T05:27:56.414Z,1023.81
2024-01-25T05:28:57.373Z,1024.01
2024-01-25T05:29:58.381Z,1024.11
2024-01-25T05:31:01.380Z,1024.01
2024-01-25T05:32:00.389Z,1024.01
2024-01-25T05:33:01.488Z,1024.21
2024-01-25T05:34:02.548Z,1024.01
2024-01-25T05:35:03.621Z,1024.01
2024-01-25T05:36:04.372Z,1024.01
2024-01-25T05:37:05.407Z,1024.01
2024-01-25T05:38:06.355Z,1024.01
2024-01-25T05:39:07.382Z,1024.01
2024-01-25T05:40:08.481Z,1024.11
2024-01-25T05:41:09.378Z,1024.31
2024-01-25T05:42:10.409Z,1024.01
2024-01-25T05:43:11.410Z,1024.11
2024-01-25T05:44:12.372Z,1024.21
2024-01-25T05:45:13.578Z,1024.21
2024-01-25T05:46:14.528Z,1024.21
2024-01-25T05:47:15.400Z,1024.01
2024-01-25T05:48:16.489Z,1024.21
2024-01-25T05:49:17.592Z,1024.21
2024-01-25T05:50:18.613Z,1024.11
2024-01-25T05:51:19.406Z,1024.31
2024-01-25T05:52:20.477Z,1024.21
2024-01-25T05:53:21.372Z,1024.11
2024-01-25T05:54:22.391Z,1024.21
2024-01-25T05:55:23.512Z,1024.21
2024-01-25T05:56:24.396Z,1024.21
2024-01-25T05:57:25.402Z,1024.31
2024-01-25T05:58:26.671Z,1024.31
2024-01-25T05:59:27.403Z,1024.31
2024-01-25T06:00:28.662Z,1024.41
2024-01-25T06:01:29.545Z,1024.31
2024-01-25T06:02:30.451Z,1024.21
2024-01-25T06:03:31.470Z,1024.31
2024-01-25T06:04:32.428Z,1024.41
2024-01-25T06:05:33.802Z,1024.41
2024-01-25T06:06:34.543Z,1024.31
2024-01-25T06:07:35.737Z,1024.31
2024-01-25T06:08:36.657Z,1024.21
2024-01-25T06:09:37.445Z,1024.21
2024-01-25T06:10:38.466Z,1024.31
2024-01-25T06:11:39.424Z,1024.11
2024-01-25T06:12:40.500Z,1024.41
2024-01-25T06:13:41.571Z,1024.41
2024-01-25T06:14:42.437Z,1024.48
2024-01-25T06:15:43.606Z,1024.41
2024-01-25T06:16:44.418Z,1024.31
2024-01-25T06:17:45.540Z,1024.69
2024-01-25T06:18:46.608Z,1024.41
2024-01-25T06:19:47.691Z,1024.58
2024-01-25T06:20:48.421Z,1024.48
2024-01-25T06:21:49.459Z,1024.48
2024-01-25T06:22:50.442Z,1024.48
2024-01-25T06:23:51.416Z,1024.31
2024-01-25T06:24:52.482Z,1024.48
2024-01-25T06:25:53.440Z,1024.58
2024-01-25T06:26:54.432Z,1024.69
2024-01-25T06:27:55.467Z,1024.58
2024-01-25T06:28:56.436Z,1024.48
2024-01-25T06:29:57.425Z,1024.48
2024-01-25T06:30:58.718Z,1024.58
2024-01-25T06:31:59.475Z,1024.58
2024-01-25T06:33:00.586Z,1024.58
2024-01-25T06:34:01.601Z,1024.58
2024-01-25T06:35:02.669Z,1024.69
2024-01-25T06:36:03.457Z,1024.89
2024-01-25T06:37:04.523Z,1024.69
2024-01-25T06:38:05.460Z,1024.58
2024-01-25T06:39:06.449Z,1024.69
2024-01-25T06:40:07.515Z,1024.58
2024-01-25T06:41:08.545Z,1024.69
2024-01-25T06:42:09.449Z,1024.79
2024-01-25T06:43:11.329Z,1024.69
2024-01-25T06:44:11.442Z,1024.69
2024-01-25T06:45:12.598Z,1024.58
2024-01-25T06:46:13.588Z,1024.69
2024-01-25T06:47:14.458Z,1024.69
2024-01-25T06:48:15.625Z,1024.58
2024-01-25T06:49:16.652Z,1024.89
2024-01-25T06:50:17.581Z,1024.99
2024-01-25T06:51:18.470Z,1024.89
2024-01-25T06:52:19.555Z,1024.79
2024-01-25T06:53:20.467Z,1024.79
2024-01-25T06:54:21.483Z,1024.89
2024-01-25T06:55:22.543Z,1024.89
2024-01-25T06:56:23.471Z,1024.69
2024-01-25T06:57:24.476Z,1024.99
2024-01-25T06:58:25.658Z,1024.89
2024-01-25T06:59:26.469Z,1024.89
2024-01-25T07:00:27.680Z,1024.89
2024-01-25T07:01:28.545Z,1024.89
2024-01-25T07:02:29.833Z,1024.89
2024-01-25T07:03:30.540Z,1024.79
2024-01-25T07:04:31.707Z,1024.99
2024-01-25T07:05:32.501Z,1024.99
2024-01-25T07:06:33.621Z,1025.09
2024-01-25T07:07:34.530Z,1024.99
2024-01-25T07:08:35.567Z,1024.99
2024-01-25T07:09:36.604Z,1025.09
2024-01-25T07:10:37.567Z,1025.30
2024-01-25T07:11:38.507Z,1025.09
2024-01-25T07:12:39.746Z,1025.19
2024-01-25T07:13:40.592Z,1024.99
2024-01-25T07:14:41.564Z,1025.30
2024-01-25T07:15:42.814Z,1025.30
2024-01-25T07:16:43.580Z,1025.19
2024-01-25T07:17:44.620Z,1025.19
2024-01-25T07:18:45.702Z,1025.09
2024-01-25T07:19:46.744Z,1025.09
2024-01-25T07:20:47.761Z,1025.19
2024-01-25T07:21:48.629Z,1025.40
2024-01-25T07:22:49.627Z,1024.99
2024-01-25T07:23:50.615Z,1025.30
2024-01-25T07:24:51.616Z,1025.09
2024-01-25T07:25:52.594Z,1025.30
2024-01-25T07:26:55.108Z,1025.19
2024-01-25T07:27:54.643Z,1025.50
2024-01-25T07:28:55.590Z,1025.40
2024-01-25T07:29:56.606Z,1025.50
2024-01-25T07:30:57.882Z,1025.60
2024-01-25T07:31:58.590Z,1025.40
2024-01-25T07:32:59.743Z,1025.60
2024-01-25T07:34:00.818Z,1025.50
2024-01-25T07:35:01.991Z,1025.50
2024-01-25T07:36:02.620Z,1025.60
2024-01-25T07:37:03.654Z,1025.60
2024-01-25T07:38:04.599Z,1025.60
2024-01-25T07:39:05.627Z,1025.60
2024-01-25T07:40:06.698Z,1025.80
2024-01-25T07:41:07.624Z,1025.60
2024-01-25T07:42:08.727Z,1025.60
2024-01-25T07:43:09.778Z,1025.70
2024-01-25T07:44:11.789Z,1025.50
2024-01-25T07:45:11.813Z,1025.80
2024-01-25T07:46:12.628Z,1025.70
2024-01-25T07:47:13.617Z,1025.60
2024-01-25T07:48:15.859Z,1025.70
2024-01-25T07:49:15.826Z,1025.60
2024-01-25T07:50:16.892Z,1025.40
2024-01-25T07:51:17.705Z,1025.40
2024-01-25T07:52:18.698Z,1025.70
2024-01-25T07:53:19.659Z,1025.50
2024-01-25T07:54:20.652Z,1025.70
2024-01-25T07:55:21.654Z,1025.50
2024-01-25T07:56:22.633Z,1025.40
2024-01-25T07:57:23.644Z,1025.60
2024-01-25T07:58:24.781Z,1025.50
2024-01-25T07:59:25.669Z,1025.50
2024-01-25T08:00:26.897Z,1025.70
2024-01-25T08:01:27.767Z,1025.60
2024-01-25T08:02:28.775Z,1025.60
2024-01-25T08:03:29.728Z,1025.70
2024-01-25T08:04:30.770Z,1025.50
2024-01-25T08:05:40.568Z,1025.70
2024-01-25T08:06:32.972Z,1025.90
2024-01-25T08:07:33.892Z,1025.90
2024-01-25T08:08:34.671Z,1025.70
2024-01-25T08:09:35.776Z,1025.90
2024-01-25T08:10:36.710Z,1026.01
2024-01-25T08:11:37.685Z,1025.90
2024-01-25T08:12:39.287Z,1025.90
2024-01-25T08:13:39.735Z,1025.70
2024-01-25T08:14:40.684Z,1025.80
2024-01-25T08:15:41.987Z,1025.90
2024-01-25T08:16:42.718Z,1025.80
2024-01-25T08:17:43.778Z,1026.11
2024-01-25T08:18:44.815Z,1025.80
2024-01-25T08:19:46.584Z,1025.90
2024-01-25T08:20:46.910Z,1025.90
2024-01-25T08:21:47.759Z,1025.90
2024-01-25T08:22:48.718Z,1026.01
2024-01-25T08:23:49.689Z,1025.90
2024-01-25T08:24:50.854Z,1025.90
2024-01-25T08:25:51.720Z,1025.70
2024-01-25T08:26:52.699Z,1025.80
2024-01-25T08:27:53.773Z,1025.90
2024-01-25T08:28:54.726Z,1025.80
2024-01-25T08:29:55.683Z,1025.80
2024-01-25T08:30:57.117Z,1025.80
2024-01-25T08:31:57.711Z,1025.80
2024-01-25T08:32:58.772Z,1025.90
2024-01-25T08:33:59.967Z,1025.70
2024-01-25T08:35:01.183Z,1025.80
2024-01-25T08:36:02.068Z,1025.80
2024-01-25T08:37:02.799Z,1025.70
2024-01-25T08:38:03.709Z,1025.70
2024-01-25T08:39:04.723Z,1025.90
2024-01-25T08:40:05.820Z,1025.90
2024-01-25T08:41:06.768Z,1025.90
2024-01-25T08:42:07.709Z,1025.90
2024-01-25T08:43:08.908Z,1025.70
2024-01-25T08:44:09.727Z,1025.90
2024-01-25T08:45:11.904Z,1025.70
2024-01-25T08:46:11.809Z,1026.01
2024-01-25T08:47:12.695Z,1026.01
2024-01-25T08:48:13.791Z,1025.80
2024-01-25T08:49:14.945Z,1026.11
2024-01-25T08:50:16.066Z,1025.80
2024-01-25T08:51:16.745Z,1025.80
2024-01-25T08:52:17.793Z,1025.90
2024-01-25T08:53:18.729Z,1026.01
2024-01-25T08:54:19.735Z,1025.90
2024-01-25T08:55:20.813Z,1026.01
2024-01-25T08:56:21.743Z,1025.90
2024-01-25T08:57:22.708Z,1025.90
2024-01-25T08:58:23.958Z,1025.70
2024-01-25T08:59:24.718Z,1025.80
2024-01-25T09:00:25.925Z,1026.01
2024-01-25T09:01:26.873Z,1026.01
2024-01-25T09:02:28.223Z,1025.80
2024-01-25T09:03:28.732Z,1026.11
2024-01-25T09:04:29.874Z,1025.90
2024-01-25T09:05:31.282Z,1026.11
2024-01-25T09:06:31.986Z,1026.21
2024-01-25T09:07:32.833Z,1026.21
2024-01-25T09:08:33.864Z,1026.31
2024-01-25T09:09:34.783Z,1026.41
2024-01-25T09:10:35.788Z,1026.21
2024-01-25T09:11:36.734Z,1026.21
2024-01-25T09:12:37.748Z,1026.31
2024-01-25T09:13:45.607Z,1026.21
2024-01-25T09:14:39.739Z,1026.31
2024-01-25T09:15:40.961Z,1026.21
2024-01-25T09:16:41.830Z,1026.31
2024-01-25T09:17:42.867Z,1026.21
2024-01-25T09:18:43.825Z,1026.11
2024-01-25T09:19:45.033Z,1026.31
2024-01-25T09:20:45.815Z,1026.31
2024-01-25T09:21:46.787Z,1026.11
2024-01-25T09:22:47.907Z,1026.31
2024-01-25T09:23:49.008Z,1026.31
2024-01-25T09:24:49.858Z,1026.31
2024-01-25T09:25:50.756Z,1026.21
2024-01-25T09:26:51.758Z,1026.41
2024-01-25T09:27:52.790Z,1026.11
2024-01-25T09:28:53.730Z,1026.31
2024-01-25T09:29:54.792Z,1026.11
2024-01-25T09:30:55.974Z,1026.21
2024-01-25T09:31:56.756Z,1026.21
2024-01-25T09:32:57.959Z,1026.11
2024-01-25T09:33:59.148Z,1025.90
2024-01-25T09:34:59.839Z,1026.11
2024-01-25T09:36:01.003Z,1026.01
2024-01-25T09:37:01.830Z,1026.21
2024-01-25T09:38:02.964Z,1026.11
2024-01-25T09:39:03.932Z,1026.21
2024-01-25T09:40:04.970Z,1026.21
2024-01-25T09:41:05.755Z,1026.51
2024-01-25T09:42:06.765Z,1026.11
2024-01-25T09:43:08.018Z,1026.41
2024-01-25T09:44:08.863Z,1026.41
2024-01-25T09:45:09.983Z,1026.58
2024-01-25T09:46:10.997Z,1026.51
2024-01-25T09:47:11.765Z,1026.58
2024-01-25T09:48:13.261Z,1026.58
2024-01-25T09:49:13.978Z,1026.31
2024-01-25T09:50:14.963Z,1026.41
2024-01-25T09:51:15.778Z,1026.51
2024-01-25T09:52:16.899Z,1026.58
2024-01-25T09:53:17.840Z,1026.58
2024-01-25T09:54:18.751Z,1026.58
2024-01-25T09:55:19.770Z,1026.68
2024-01-25T09:56:20.783Z,1026.41
2024-01-25T09:57:21.768Z,1026.41
2024-01-25T09:58:22.791Z,1026.58
2024-01-25T09:59:23.789Z,1026.51
2024-01-25T10:00:24.940Z,1026.31
2024-01-25T10:01:26.046Z,1026.31
2024-01-25T10:02:26.939Z,1026.31
2024-01-25T10:03:27.783Z,1026.11
2024-01-25T10:04:28.916Z,1026.51
2024-01-25T10:05:30.129Z,1026.21
2024-01-25T10:06:31.038Z,1026.31
2024-01-25T10:07:31.953Z,1026.31
2024-01-25T10:08:32.850Z,1026.41
2024-01-25T10:09:33.797Z,1026.41
2024-01-25T10:10:35.031Z,1026.51
2024-01-25T10:11:37.750Z,1026.41
2024-01-25T10:12:36.813Z,1026.41
2024-01-25T10:13:37.868Z,1026.41
2024-01-25T10:14:38.771Z,1026.58
2024-01-25T10:15:40.032Z,1026.68
2024-01-25T10:16:41.031Z,1026.41
2024-01-25T10:18:43.074Z,1026.51
2024-01-25T10:19:44.000Z,1026.58
2024-01-25T10:20:45.028Z,1026.51
2024-01-25T10:21:46.206Z,1026.68
2024-01-25T10:22:47.027Z,1026.79
2024-01-25T10:23:48.421Z,1026.58
2024-01-25T10:24:48.877Z,1026.58
2024-01-25T10:25:49.863Z,1026.51
2024-01-25T10:26:50.787Z,1026.58
2024-01-25T10:27:51.801Z,1026.79
2024-01-25T10:28:53.734Z,1026.58
2024-01-25T10:29:53.803Z,1026.68
2024-01-25T10:30:55.114Z,1026.79
2024-01-25T10:31:55.792Z,1026.89
2024-01-25T10:32:56.858Z,1026.68
2024-01-25T10:33:57.948Z,1026.68
2024-01-25T10:34:58.980Z,1026.79
2024-01-25T10:35:59.977Z,1026.68
2024-01-25T10:37:00.804Z,1026.68
2024-01-25T10:38:01.840Z,1026.79
2024-01-25T10:39:02.790Z,1026.68
2024-01-25T10:40:03.878Z,1026.89
2024-01-25T10:41:04.846Z,1026.89
2024-01-25T10:42:05.826Z,1026.79
2024-01-25T10:43:06.863Z,1026.89
2024-01-25T10:44:07.862Z,1026.79
2024-01-25T10:45:09.116Z,1026.89
2024-01-25T10:46:09.897Z,1026.68
2024-01-25T10:47:10.822Z,1026.68
2024-01-25T10:48:12.167Z,1026.89
2024-01-25T10:49:12.903Z,1026.79
2024-01-25T10:50:13.991Z,1026.99
2024-01-25T10:51:16.328Z,1026.79
2024-01-25T10:52:15.827Z,1026.79
2024-01-25T10:53:16.848Z,1026.89
2024-01-25T10:54:17.815Z,1026.79
2024-01-25T10:55:18.844Z,1026.79
2024-01-25T10:56:19.825Z,1026.99
2024-01-25T10:57:20.823Z,1026.68
2024-01-25T10:58:21.883Z,1026.89
2024-01-25T10:59:22.814Z,1026.79
2024-01-25T11:00:24.032Z,1026.79
2024-01-25T11:01:24.968Z,1026.79
2024-01-25T11:02:25.985Z,1026.79
2024-01-25T11:03:26.840Z,1026.89
2024-01-25T11:04:27.915Z,1026.58
2024-01-25T11:05:29.230Z,1026.68
2024-01-25T11:06:29.964Z,1026.79
2024-01-25T11:07:30.927Z,1026.79
2024-01-25T11:08:31.874Z,1026.89
2024-01-25T11:09:32.937Z,1026.58
2024-01-25T11:10:33.979Z,1026.68
2024-01-25T11:11:34.847Z,1026.79
2024-01-25T11:12:37.310Z,1026.58
2024-01-25T11:13:36.869Z,1026.68
2024-01-25T11:14:37.828Z,1026.79
2024-01-25T11:15:39.079Z,1026.68
2024-01-25T11:16:39.955Z,1026.68
2024-01-25T11:17:41.064Z,1026.68
2024-01-25T11:18:42.182Z,1026.68
2024-01-25T11:19:43.059Z,1026.51
2024-01-25T11:20:44.088Z,1026.68
2024-01-25T11:21:45.056Z,1026.58
2024-01-25T11:22:46.011Z,1026.68
2024-01-25T11:23:46.987Z,1026.58
2024-01-25T11:24:48.007Z,1026.51
2024-01-25T11:25:48.982Z,1026.51
2024-01-25T11:26:49.855Z,1026.68
2024-01-25T11:27:50.920Z,1026.68
2024-01-25T11:28:51.837Z,1026.68
2024-01-25T11:29:52.853Z,1026.41
2024-01-25T11:30:54.083Z,1026.58
2024-01-25T11:31:55.055Z,1026.58
2024-01-25T11:32:55.911Z,1026.58
2024-01-25T11:33:56.953Z,1026.51
2024-01-25T11:34:57.948Z,1026.51
2024-01-25T11:35:58.878Z,1026.21
2024-01-25T11:37:00.034Z,1026.58
2024-01-25T11:38:00.888Z,1026.51
2024-01-25T11:39:01.900Z,1026.51
2024-01-25T11:40:03.141Z,1026.58
2024-01-25T11:41:03.907Z,1026.51
2024-01-25T11:42:04.893Z,1026.68
2024-01-25T11:43:05.986Z,1026.58
2024-01-25T11:44:07.048Z,1026.51
2024-01-25T11:45:08.196Z,1026.51
2024-01-25T11:46:09.358Z,1026.31
2024-01-25T11:47:10.046Z,1026.31
2024-01-25T11:48:11.170Z,1026.51
2024-01-25T11:49:12.216Z,1026.31
2024-01-25T11:50:13.335Z,1026.51
2024-01-25T11:51:14.008Z,1026.51
2024-01-25T11:52:15.094Z,1026.58
2024-01-25T11:53:15.992Z,1026.58
2024-01-25T11:54:17.074Z,1026.89
2024-01-25T11:55:18.054Z,1026.51
2024-01-25T11:56:18.987Z,1026.41
2024-01-25T11:57:19.985Z,1026.41
2024-01-25T11:58:21.089Z,1026.31
2024-01-25T11:59:22.039Z,1026.51
2024-01-25T12:00:23.158Z,1026.21
2024-01-25T12:01:24.100Z,1026.21
2024-01-25T12:02:25.097Z,1026.31
2024-01-25T12:03:25.996Z,1026.51
2024-01-25T12:04:27.142Z,1026.41
2024-01-25T12:05:28.140Z,1026.58
2024-01-25T12:06:29.094Z,1026.51
2024-01-25T12:07:30.148Z,1026.51
2024-01-25T12:08:30.987Z,1026.51
2024-01-25T12:09:31.902Z,1026.31
2024-01-25T12:10:33.085Z,1026.51
2024-01-25T12:11:33.973Z,1026.41
2024-01-25T12:12:35.150Z,1026.31
2024-01-25T12:13:35.929Z,1026.58
2024-01-25T12:14:36.873Z,1026.41
2024-01-25T12:15:38.139Z,1026.41
2024-01-25T12:16:39.643Z,1026.31
2024-01-25T12:17:39.909Z,1026.41
2024-01-25T12:18:41.056Z,1026.31